.
WxDataArchive / Data Records for 2009-04-05
2009-04-04 April 2009 2009-04-06

Data Records for Sunday, 05 April 2009

Time	Temp	Chill	HIndex	Humid	Dewpt	 Wind 	HiWind	WindDir	Rain 	Barom 
-----	----	-----	------	-----	-----	------	------	-------	-----	----- 
00:00	39.8	39.8	39.8	66	29.4	0	0	---	0.00	29.987 
00:05	39.9	39.9	39.9	65	29.1	0	0	---	0.00	29.986 
00:10	40.2	40.2	40.2	65	29.4	0	1	338	0.00	29.984 
00:15	40.3	40.3	40.3	65	29.5	0	1	338	0.00	29.989 
00:20	40.5	40.5	40.5	64	29.3	0	1	338	0.00	29.990 
00:25	40.5	40.5	40.5	64	29.3	0	1	338	0.00	29.992 
00:30	40.6	40.6	40.6	64	29.4	0	0	---	0.00	29.991 
00:35	40.6	40.6	40.6	64	29.4	0	1	338	0.00	29.989 
00:40	40.6	40.6	40.6	64	29.4	0	1	338	0.00	29.986 
00:45	40.6	40.6	40.6	63	29.0	0	1	338	0.00	29.985 
00:50	40.6	40.6	40.6	64	29.4	0	0	---	0.00	29.986 
00:55	40.5	40.5	40.5	64	29.3	0	0	---	0.00	29.995 
01:00	40.6	40.6	40.6	64	29.4	0	0	---	0.00	30.002 
01:05	40.6	40.6	40.6	64	29.4	0	0	---	0.00	29.998 
01:10	40.3	40.3	40.3	65	29.5	0	0	---	0.00	29.990 
01:15	40.3	40.3	40.3	65	29.5	0	0	---	0.00	29.989 
01:20	40.2	40.2	40.2	66	29.8	0	1	338	0.00	29.979 
01:25	40.2	40.2	40.2	68	30.5	0	1	338	0.00	29.976 
01:30	40.2	40.2	40.2	67	30.1	0	1	338	0.00	29.981 
01:35	40.3	40.3	40.3	68	30.6	0	1	338	0.00	29.988 
01:40	40.3	40.3	40.3	68	30.6	0	0	---	0.00	30.000 
01:45	40.3	40.3	40.3	68	30.6	0	0	---	0.00	30.005 
01:50	40.3	40.3	40.3	67	30.2	0	0	---	0.00	30.002 
01:55	40.2	40.2	40.2	67	30.1	0	0	---	0.00	30.001 
02:00	40.1	40.1	40.1	68	30.4	0	0	---	0.00	29.997 
02:05	39.9	39.9	39.9	68	30.2	0	0	---	0.00	29.994 
02:10	39.9	39.9	39.9	68	30.2	0	0	---	0.00	29.991 
02:15	39.9	39.9	39.9	68	30.2	0	0	---	0.00	29.984 
02:20	40.1	40.1	40.1	69	30.8	0	1	338	0.00	29.981 
02:25	40.2	40.2	40.2	69	30.9	0	1	338	0.00	29.981 
02:30	40.5	40.5	40.5	69	31.1	0	2	338	0.00	29.966 
02:35	40.6	40.6	40.6	68	30.9	1	4	22	0.00	29.941 
02:40	41.1	41.1	41.1	67	31.0	0	3	45	0.00	29.958 
02:45	41.2	41.2	41.2	66	30.7	0	3	90	0.00	29.951 
02:50	41.5	41.5	41.5	65	30.6	1	3	45	0.00	29.947 
02:55	41.8	41.8	41.8	65	30.9	0	2	45	0.00	29.956 
03:00	41.8	41.8	41.8	65	30.9	0	2	45	0.00	29.960 
03:05	41.8	41.8	41.8	66	31.3	0	3	68	0.00	29.959 
03:10	41.8	41.8	41.8	67	31.7	0	2	68	0.00	29.960 
03:15	41.6	41.6	41.6	67	31.5	0	2	68	0.00	29.956 
03:20	41.6	41.6	41.6	66	31.1	0	2	68	0.00	29.958 
03:25	41.6	41.6	41.6	66	31.1	0	2	68	0.00	29.962 
03:30	41.5	41.5	41.5	66	31.0	0	2	68	0.00	29.959 
03:35	41.2	41.2	41.2	66	30.7	1	3	68	0.00	29.952 
03:40	40.9	40.9	40.9	67	30.8	1	4	68	0.00	29.949 
03:45	40.8	40.8	40.8	68	31.1	1	3	68	0.00	29.947 
03:50	40.6	40.6	40.6	67	30.5	1	5	112	0.00	29.948 
03:55	40.5	40.5	40.5	67	30.4	0	1	112	0.00	29.949 
04:00	40.3	40.3	40.3	68	30.6	0	2	112	0.00	29.950 
04:05	40.1	40.1	40.1	69	30.8	0	2	112	0.00	29.948 
04:10	39.9	39.9	39.9	69	30.6	1	3	112	0.00	29.948 
04:15	39.8	39.8	39.8	69	30.5	1	3	112	0.00	29.946 
04:20	39.6	39.6	39.6	70	30.6	1	4	112	0.00	29.939 
04:25	39.5	39.5	39.5	70	30.5	1	4	112	0.00	29.939 
04:30	39.2	39.2	39.2	71	30.6	2	4	90	0.00	29.939 
04:35	39.1	39.1	39.1	71	30.5	2	5	90	0.00	29.936 
04:40	38.9	38.9	38.9	72	30.7	2	5	90	0.00	29.934 
04:45	38.8	38.8	38.8	72	30.6	3	6	112	0.00	29.926 
04:50	38.6	38.6	38.6	73	30.7	3	5	112	0.00	29.927 
04:55	38.5	38.5	38.5	73	30.6	2	5	90	0.00	29.925 
05:00	38.3	38.3	38.3	73	30.4	2	5	90	0.00	29.927 
05:05	38.2	38.2	38.2	73	30.3	2	6	90	0.00	29.928 
05:10	38.2	38.2	38.2	73	30.3	2	5	90	0.00	29.924 
05:15	38.2	38.2	38.2	74	30.7	2	7	90	0.00	29.923 
05:20	38.0	38.0	38.0	74	30.5	3	7	112	0.00	29.919 
05:25	38.0	38.0	38.0	74	30.5	3	5	112	0.00	29.911 
05:30	37.9	37.9	37.9	74	30.4	2	5	112	0.00	29.909 
05:35	37.8	37.8	37.8	74	30.3	2	5	112	0.00	29.910 
05:40	37.6	37.6	37.6	74	30.1	1	5	112	0.00	29.913 
05:45	37.6	37.6	37.6	74	30.1	1	5	112	0.00	29.920 
05:50	37.5	37.5	37.5	74	30.0	1	4	112	0.00	29.921 
05:55	37.3	37.3	37.3	74	29.8	1	3	112	0.00	29.921 
06:00	37.2	37.2	37.2	74	29.7	1	4	112	0.00	29.923 
06:05	37.0	37.0	37.0	75	29.8	1	3	112	0.00	29.926 
06:10	36.9	36.9	36.9	75	29.7	1	3	112	0.00	29.926 
06:15	36.6	36.6	36.6	76	29.8	1	4	90	0.00	29.927 
06:20	36.5	36.5	36.5	76	29.7	0	2	112	0.00	29.925 
06:25	36.3	36.3	36.3	77	29.8	0	2	112	0.00	29.925 
06:30	36.3	36.3	36.3	77	29.8	1	4	112	0.00	29.924 
06:35	36.3	36.3	36.3	77	29.8	1	4	112	0.00	29.924 
06:40	36.3	36.3	36.3	77	29.8	1	4	112	0.00	29.926 
06:45	36.5	36.5	36.5	77	30.0	1	4	112	0.00	29.925 
06:50	36.8	36.8	36.8	77	30.3	3	7	112	0.00	29.923 
06:55	37.0	37.0	37.0	76	30.2	3	7	112	0.00	29.921 
07:00	37.2	37.2	37.2	75	30.0	3	7	112	0.00	29.922 
07:05	37.3	37.3	37.3	75	30.1	3	7	112	0.00	29.923 
07:10	37.3	37.3	37.3	75	30.1	3	7	112	0.00	29.928 
07:15	37.3	37.3	37.3	75	30.1	3	6	112	0.00	29.928 
07:20	37.8	37.8	37.8	74	30.3	3	7	112	0.00	29.926 
07:25	38.0	35.0	38.0	73	30.1	4	11	90	0.00	29.928 
07:30	38.5	35.6	38.5	73	30.6	4	7	112	0.00	29.929 
07:35	38.9	38.9	38.9	73	31.0	3	10	90	0.00	29.930 
07:40	39.3	39.3	39.3	72	31.0	3	6	112	0.00	29.928 
07:45	39.8	39.8	39.8	72	31.5	3	8	112	0.00	29.928 
07:50	40.3	40.3	40.3	71	31.7	3	10	112	0.00	29.927 
07:55	40.2	37.5	40.2	71	31.6	4	11	112	0.00	29.928 
08:00	40.1	36.6	40.1	71	31.5	5	10	112	0.00	29.926 
08:05	40.2	37.5	40.2	73	32.2	4	10	112	0.00	29.921 
08:10	40.5	37.1	40.5	72	32.2	5	12	112	0.00	29.911 
08:15	40.6	38.0	40.6	71	31.9	4	9	112	0.00	29.911 
08:20	40.8	36.7	40.8	70	31.8	6	13	112	0.00	29.906 
08:25	41.2	37.2	41.2	69	31.8	6	12	112	0.00	29.900 
08:30	41.8	37.3	41.8	69	32.4	7	13	112	0.00	29.895 
08:35	42.3	38.5	42.3	68	32.5	6	12	112	0.00	29.894 
08:40	42.8	39.8	42.8	68	33.0	5	11	90	0.00	29.894 
08:45	43.3	39.7	43.3	67	33.1	6	13	90	0.00	29.898 
08:50	43.5	39.9	43.5	67	33.3	6	12	112	0.00	29.903 
08:55	44.1	42.1	44.1	67	33.9	4	10	112	0.00	29.896 
09:00	44.5	41.8	44.5	65	33.5	5	11	90	0.00	29.888 
09:05	45.2	43.3	45.2	65	34.1	4	11	112	0.00	29.888 
09:10	45.5	42.3	45.5	64	34.0	6	12	112	0.00	29.889 
09:15	46.0	43.5	46.0	64	34.5	5	12	112	0.00	29.885 
09:20	46.2	43.8	46.2	62	33.9	5	12	112	0.00	29.881 
09:25	45.7	42.0	45.7	63	33.8	7	13	112	0.00	29.878 
09:30	45.5	43.7	45.5	63	33.6	4	9	90	0.00	29.880 
09:35	45.5	43.7	45.5	64	34.0	4	12	112	0.00	29.886 
09:40	45.4	42.8	45.4	62	33.2	5	10	90	0.00	29.891 
09:45	45.5	42.9	45.5	63	33.6	5	14	112	0.00	29.891 
09:50	45.5	42.3	45.5	62	33.2	6	14	112	0.00	29.891 
09:55	45.5	45.5	45.5	63	33.6	3	7	90	0.00	29.893 
10:00	45.7	45.7	45.7	64	34.2	3	10	112	0.00	29.888 
10:05	45.7	43.2	45.7	62	33.4	5	9	112	0.00	29.889 
10:10	45.7	43.9	45.7	63	33.8	4	10	112	0.00	29.884 
10:15	45.7	45.7	45.7	65	34.6	2	6	135	0.00	29.888 
10:20	45.7	45.7	45.7	65	34.6	2	6	112	0.00	29.891 
10:25	45.5	42.9	45.5	65	34.4	5	9	90	0.00	29.887 
10:30	45.4	43.6	45.4	66	34.7	4	9	90	0.00	29.882 
10:35	45.4	45.4	45.4	69	35.8	2	6	112	0.00	29.881 
10:40	45.4	42.8	45.4	69	35.8	5	9	90	0.00	29.863 
10:45	45.2	43.3	45.2	69	35.6	4	11	90	0.00	29.849 
10:50	45.2	42.6	45.2	69	35.6	5	11	90	0.00	29.844 
10:55	45.1	41.8	45.1	71	36.3	6	14	90	0.01	29.820 
11:00	44.9	44.9	44.9	73	36.8	2	7	90	0.00	29.843 
11:05	44.9	44.9	44.9	74	37.1	2	5	90	0.00	29.844 
11:10	44.9	44.9	44.9	75	37.5	3	6	112	0.00	29.840 
11:15	44.9	44.9	44.9	76	37.8	2	6	90	0.00	29.836 
11:20	44.9	43.0	44.9	74	37.1	4	7	90	0.00	29.830 
11:25	45.1	45.1	45.1	77	38.3	2	5	112	0.01	29.831 
11:30	45.1	45.1	45.1	77	38.3	2	6	90	0.00	29.831 
11:35	44.9	44.9	44.9	77	38.1	3	6	90	0.00	29.823 
11:40	44.9	42.2	44.9	78	38.5	5	11	90	0.01	29.811 
11:45	44.9	43.0	44.9	79	38.8	4	10	112	0.00	29.801 
11:50	44.9	43.0	44.9	79	38.8	4	10	90	0.00	29.804 
11:55	45.1	43.2	45.1	80	39.3	4	10	90	0.00	29.809 
12:00	44.9	44.9	44.9	81	39.4	2	6	90	0.01	29.810 
12:05	44.9	44.9	44.9	82	39.7	2	5	112	0.01	29.812 
12:10	44.8	44.8	44.8	83	40.0	1	4	90	0.01	29.815 
12:15	44.6	44.6	44.6	84	40.1	2	4	90	0.01	29.814 
12:20	44.6	44.6	44.6	84	40.1	3	5	112	0.01	29.812 
12:25	44.6	44.6	44.6	85	40.4	3	5	90	0.00	29.798 
12:30	44.5	41.8	44.5	86	40.6	5	10	90	0.01	29.774 
12:35	44.3	41.5	44.3	86	40.4	5	10	112	0.01	29.765 
12:40	44.3	44.3	44.3	86	40.4	1	8	112	0.01	29.773 
12:45	44.3	44.3	44.3	87	40.7	1	3	0	0.00	29.781 
12:50	44.5	44.5	44.5	87	40.9	1	3	112	0.01	29.777 
12:55	44.6	44.6	44.6	88	41.3	3	6	112	0.00	29.765 
13:00	44.8	44.8	44.8	88	41.5	3	8	112	0.01	29.756 
13:05	44.9	44.9	44.9	88	41.6	2	6	112	0.00	29.753 
13:10	45.1	45.1	45.1	88	41.8	3	7	90	0.00	29.751 
13:15	45.1	45.1	45.1	88	41.8	2	7	90	0.00	29.752 
13:20	45.1	45.1	45.1	87	41.5	2	7	112	0.00	29.753 
13:25	45.1	45.1	45.1	87	41.5	1	3	68	0.00	29.755 
13:30	45.2	45.2	45.2	88	41.9	1	5	112	0.00	29.761 
13:35	45.2	45.2	45.2	88	41.9	1	3	112	0.01	29.765 
13:40	45.2	45.2	45.2	88	41.9	2	4	112	0.01	29.762 
13:45	45.2	45.2	45.2	88	41.9	3	6	112	0.01	29.754 
13:50	45.1	45.1	45.1	89	42.1	3	6	112	0.01	29.753 
13:55	45.1	45.1	45.1	89	42.1	3	5	90	0.01	29.753 
14:00	45.2	45.2	45.2	89	42.2	1	3	90	0.00	29.756 
14:05	45.1	45.1	45.1	90	42.3	2	4	90	0.01	29.750 
14:10	45.1	45.1	45.1	90	42.3	2	5	90	0.01	29.744 
14:15	45.1	45.1	45.1	90	42.3	0	2	112	0.01	29.745 
14:20	45.2	45.2	45.2	91	42.7	1	3	112	0.01	29.737 
14:25	45.2	45.2	45.2	91	42.7	1	4	112	0.01	29.734 
14:30	45.2	45.2	45.2	91	42.7	0	2	112	0.01	29.734 
14:35	45.2	45.2	45.2	91	42.7	0	3	112	0.01	29.734 
14:40	45.2	45.2	45.2	92	43.0	0	1	112	0.01	29.728 
14:45	45.2	45.2	45.2	92	43.0	1	4	112	0.01	29.719 
14:50	45.2	45.2	45.2	92	43.0	1	2	45	0.01	29.718 
14:55	45.2	45.2	45.2	92	43.0	1	4	45	0.00	29.711 
15:00	45.2	45.2	45.2	92	43.0	1	5	112	0.01	29.701 
15:05	45.1	45.1	45.1	92	42.9	2	6	68	0.00	29.688 
15:10	44.9	44.9	44.9	92	42.7	3	6	22	0.00	29.688 
15:15	44.9	44.9	44.9	92	42.7	2	5	112	0.01	29.685 
15:20	44.9	44.9	44.9	92	42.7	2	4	112	0.00	29.684 
15:25	44.8	44.8	44.8	92	42.6	2	6	68	0.01	29.677 
15:30	44.8	44.8	44.8	92	42.6	3	11	112	0.00	29.674 
15:35	44.6	44.6	44.6	92	42.4	3	9	45	0.01	29.672 
15:40	44.6	44.6	44.6	92	42.4	3	10	112	0.01	29.659 
15:45	44.6	42.6	44.6	92	42.4	4	11	112	0.01	29.659 
15:50	44.5	42.5	44.5	92	42.3	4	11	90	0.01	29.658 
15:55	44.5	44.5	44.5	93	42.6	3	8	90	0.01	29.657 
16:00	44.5	42.5	44.5	93	42.6	4	7	112	0.01	29.665 
16:05	44.5	42.5	44.5	93	42.6	4	10	90	0.01	29.668 
16:10	44.5	42.5	44.5	93	42.6	4	9	112	0.00	29.659 
16:15	44.5	42.5	44.5	93	42.6	4	11	112	0.00	29.660 
16:20	44.3	42.3	44.3	93	42.4	4	12	90	0.01	29.659 
16:25	44.3	44.3	44.3	93	42.4	3	10	112	0.00	29.658 
16:30	44.2	42.2	44.2	93	42.3	4	10	90	0.00	29.659 
16:35	44.1	42.1	44.1	93	42.2	4	12	90	0.01	29.660 
16:40	44.1	41.3	44.1	93	42.2	5	12	112	0.01	29.660 
16:45	43.9	41.1	43.9	93	42.0	5	11	112	0.01	29.658 
16:50	43.6	40.7	43.6	93	41.7	5	11	112	0.02	29.657 
16:55	43.3	41.1	43.3	93	41.4	4	10	112	0.01	29.657 
17:00	43.2	40.2	43.2	93	41.3	5	12	90	0.02	29.651 
17:05	43.1	40.1	43.1	94	41.5	5	10	112	0.02	29.648 
17:10	42.9	40.7	42.9	94	41.3	4	12	112	0.01	29.645 
17:15	42.6	40.3	42.6	94	41.0	4	11	112	0.02	29.644 
17:20	42.5	40.2	42.5	94	40.9	4	10	112	0.02	29.645 
17:25	42.3	40.0	42.3	94	40.7	4	9	90	0.02	29.650 
17:30	42.2	39.9	42.2	94	40.6	4	9	90	0.01	29.653 
17:35	42.1	38.9	42.1	94	40.5	5	10	112	0.01	29.647 
17:40	41.9	41.9	41.9	94	40.3	3	8	112	0.02	29.646 
17:45	41.8	41.8	41.8	94	40.2	3	7	112	0.01	29.639 
17:50	41.6	39.2	41.6	94	40.0	4	10	112	0.02	29.644 
17:55	41.6	39.2	41.6	95	40.3	4	8	112	0.01	29.647 
18:00	41.5	41.5	41.5	95	40.2	3	7	112	0.01	29.644 
18:05	41.5	41.5	41.5	95	40.2	3	10	112	0.01	29.632 
18:10	41.5	39.1	41.5	95	40.2	4	9	112	0.02	29.638 
18:15	41.3	38.8	41.3	95	40.0	4	11	90	0.02	29.640 
18:20	41.3	41.3	41.3	95	40.0	3	7	112	0.02	29.645 
18:25	41.3	41.3	41.3	95	40.0	3	7	90	0.02	29.647 
18:30	41.3	38.8	41.3	95	40.0	4	11	90	0.03	29.639 
18:35	41.2	38.7	41.2	95	39.9	4	12	90	0.03	29.630 
18:40	41.2	37.9	41.2	95	39.9	5	11	112	0.02	29.619 
18:45	41.1	41.1	41.1	95	39.8	3	6	90	0.04	29.607 
18:50	40.9	38.4	40.9	95	39.6	4	9	112	0.03	29.596 
18:55	40.8	38.2	40.8	95	39.5	4	11	90	0.01	29.590 
19:00	40.6	37.2	40.6	95	39.3	5	14	112	0.02	29.595 
19:05	40.1	35.9	40.1	95	38.8	6	14	112	0.01	29.597 
19:10	39.9	37.2	39.9	95	38.6	4	13	90	0.01	29.606 
19:15	39.8	34.9	39.8	95	38.5	7	14	112	0.01	29.611 
19:20	39.6	35.3	39.6	95	38.3	6	13	112	0.02	29.598 
19:25	39.5	35.2	39.5	95	38.2	6	16	112	0.02	29.576 
19:30	39.2	33.6	39.2	95	37.9	8	15	112	0.04	29.560 
19:35	39.1	33.0	39.1	95	37.8	9	18	90	0.04	29.552 
19:40	38.9	33.8	38.9	95	37.6	7	15	112	0.01	29.544 
19:45	38.9	32.7	38.9	95	37.6	9	22	112	0.00	29.532 
19:50	38.8	33.7	38.8	95	37.5	7	19	90	0.00	29.537 
19:55	38.8	33.7	38.8	95	37.5	7	16	135	0.00	29.536 
20:00	38.8	35.1	38.8	95	37.5	5	14	112	0.00	29.540 
20:05	38.8	35.1	38.8	94	37.2	5	16	112	0.00	29.536 
20:10	38.8	35.1	38.8	94	37.2	5	16	22	0.01	29.537 
20:15	38.9	36.0	38.9	94	37.3	4	13	112	0.00	29.541 
20:20	39.1	35.4	39.1	94	37.5	5	16	112	0.00	29.537 
20:25	39.2	36.4	39.2	94	37.6	4	12	90	0.00	29.537 
20:30	39.2	36.4	39.2	94	37.6	4	11	112	0.02	29.542 
20:35	39.3	39.3	39.3	94	37.7	3	9	22	0.01	29.546 
20:40	39.3	39.3	39.3	94	37.7	3	10	112	0.01	29.546 
20:45	39.5	36.7	39.5	94	37.9	4	13	45	0.02	29.544 
20:50	39.5	39.5	39.5	94	37.9	3	7	45	0.01	29.547 
20:55	39.6	39.6	39.6	94	38.0	3	9	68	0.01	29.542 
21:00	39.6	39.6	39.6	94	38.0	3	8	45	0.02	29.540 
21:05	39.6	39.6	39.6	94	38.0	3	6	90	0.02	29.545 
21:10	39.8	39.8	39.8	94	38.2	2	7	45	0.02	29.540 
21:15	39.8	39.8	39.8	94	38.2	2	6	0	0.01	29.535 
21:20	39.8	39.8	39.8	94	38.2	3	12	45	0.01	29.530 
21:25	39.8	39.8	39.8	94	38.2	2	8	45	0.01	29.533 
21:30	39.8	39.8	39.8	94	38.2	2	7	68	0.00	29.532 
21:35	39.8	39.8	39.8	94	38.2	3	12	112	0.00	29.537 
21:40	39.8	39.8	39.8	94	38.2	1	6	22	0.01	29.538 
21:45	39.8	39.8	39.8	94	38.2	2	6	45	0.01	29.537 
21:50	39.8	39.8	39.8	94	38.2	2	7	68	0.00	29.540 
21:55	39.8	39.8	39.8	94	38.2	3	11	45	0.01	29.542 
22:00	39.6	36.9	39.6	94	38.0	4	7	112	0.02	29.529 
22:05	39.5	35.2	39.5	94	37.9	6	14	112	0.00	29.511 
22:10	39.5	35.9	39.5	94	37.9	5	13	22	0.02	29.508 
22:15	39.3	35.7	39.3	94	37.7	5	12	22	0.01	29.513 
22:20	39.3	36.5	39.3	94	37.7	4	13	112	0.01	29.516 
22:25	39.2	35.5	39.2	94	37.6	5	13	22	0.02	29.517 
22:30	39.2	39.2	39.2	94	37.6	3	7	45	0.01	29.529 
22:35	39.2	39.2	39.2	94	37.6	2	5	90	0.01	29.535 
22:40	39.1	39.1	39.1	94	37.5	1	5	90	0.00	29.544 
22:45	39.1	39.1	39.1	94	37.5	1	3	68	0.00	29.547 
22:50	38.8	38.8	38.8	94	37.2	1	4	22	0.01	29.547 
22:55	38.6	38.6	38.6	94	37.0	1	5	90	0.00	29.549 
23:00	38.3	38.3	38.3	94	36.7	1	4	22	0.00	29.552 
23:05	38.2	38.2	38.2	93	36.4	1	6	0	0.01	29.554 
23:10	37.8	37.8	37.8	93	36.0	1	7	22	0.00	29.554 
23:15	37.3	37.3	37.3	93	35.5	1	5	0	0.00	29.553 
23:20	37.0	37.0	37.0	93	35.2	1	7	45	0.01	29.551 
23:25	36.8	36.8	36.8	93	35.0	1	4	0	0.00	29.549 
23:30	36.3	36.3	36.3	93	34.5	2	5	45	0.01	29.550 
23:35	36.0	36.0	36.0	93	34.2	2	6	45	0.00	29.548 
23:40	35.9	35.9	35.9	93	34.1	1	4	338	0.01	29.549 
23:45	35.6	35.6	35.6	93	33.8	2	9	45	0.00	29.549 
23:50	35.6	35.6	35.6	93	33.8	1	5	22	0.01	29.548 
23:55	35.5	35.5	35.5	93	33.7	1	4	68	0.00	29.547 

CoCoRaHS
IN-AL-39
A2 Web Hosting
Creative Commons License
GoDaddy
search engine by freefind advanced

loaded 2018-11-16 10:47:25 • last modified 2010-11-18 10:43:29
Privacy PolicyDisclaimer
• wx.awcolley.com is powered by PmWiki v.2002016 •
• all content (unless otherwise noted) © 2018 A W Colley